sensor_id;sensor_type;location;lat;lon;timestamp;temperature;humidity
4435;DHT22;46552;52.150;8.428;2022-07-23T00:00:33;16.30;99.90
4435;DHT22;46552;52.150;8.428;2022-07-23T00:03:00;16.40;99.90
4435;DHT22;46552;52.150;8.428;2022-07-23T00:05:27;16.40;99.90
4435;DHT22;46552;52.150;8.428;2022-07-23T00:07:55;16.40;99.90
4435;DHT22;46552;52.150;8.428;2022-07-23T00:10:24;16.30;99.90
4435;DHT22;46552;52.150;8.428;2022-07-23T00:12:51;16.30;99.90
4435;DHT22;46552;52.150;8.428;2022-07-23T00:15:18;16.30;99.90
4435;DHT22;46552;52.150;8.428;2022-07-23T00:17:46;16.30;99.90
4435;DHT22;46552;52.150;8.428;2022-07-23T00:20:13;16.40;99.90
4435;DHT22;46552;52.150;8.428;2022-07-23T00:22:46;16.40;99.90
4435;DHT22;46552;52.150;8.428;2022-07-23T00:25:13;16.40;99.90
4435;DHT22;46552;52.150;8.428;2022-07-23T00:27:43;16.40;99.90
4435;DHT22;46552;52.150;8.428;2022-07-23T00:30:12;16.40;99.90
4435;DHT22;46552;52.150;8.428;2022-07-23T00:32:47;16.30;99.90
4435;DHT22;46552;52.150;8.428;2022-07-23T00:35:15;16.20;99.90
4435;DHT22;46552;52.150;8.428;2022-07-23T00:37:42;16.20;99.90
4435;DHT22;46552;52.150;8.428;2022-07-23T00:40:10;16.20;99.90
4435;DHT22;46552;52.150;8.428;2022-07-23T00:42:39;16.20;99.90
4435;DHT22;46552;52.150;8.428;2022-07-23T00:45:08;16.20;99.90
4435;DHT22;46552;52.150;8.428;2022-07-23T00:47:36;16.20;99.90
4435;DHT22;46552;52.150;8.428;2022-07-23T00:50:04;16.20;99.90
4435;DHT22;46552;52.150;8.428;2022-07-23T00:52:34;16.20;99.90
4435;DHT22;46552;52.150;8.428;2022-07-23T00:55:03;16.20;99.90
4435;DHT22;46552;52.150;8.428;2022-07-23T00:57:31;16.20;99.90
4435;DHT22;46552;52.150;8.428;2022-07-23T00:59:59;16.10;99.90
4435;DHT22;46552;52.150;8.428;2022-07-23T01:02:27;16.20;99.90
4435;DHT22;46552;52.150;8.428;2022-07-23T01:04:55;16.20;99.90
4435;DHT22;46552;52.150;8.428;2022-07-23T01:07:22;16.20;99.90
4435;DHT22;46552;52.150;8.428;2022-07-23T01:09:51;16.20;99.90
4435;DHT22;46552;52.150;8.428;2022-07-23T01:12:18;16.20;99.90
4435;DHT22;46552;52.150;8.428;2022-07-23T01:14:53;16.20;99.90
4435;DHT22;46552;52.150;8.428;2022-07-23T01:17:20;16.20;99.90
4435;DHT22;46552;52.150;8.428;2022-07-23T01:19:49;16.10;99.90
4435;DHT22;46552;52.150;8.428;2022-07-23T01:22:18;16.20;99.90
4435;DHT22;46552;52.150;8.428;2022-07-23T01:24:47;16.20;99.90
4435;DHT22;46552;52.150;8.428;2022-07-23T01:27:14;16.20;99.90
4435;DHT22;46552;52.150;8.428;2022-07-23T01:29:43;16.30;99.90
4435;DHT22;46552;52.150;8.428;2022-07-23T01:32:12;16.30;99.90
4435;DHT22;46552;52.150;8.428;2022-07-23T01:34:39;16.30;99.90
4435;DHT22;46552;52.150;8.428;2022-07-23T01:37:07;16.40;99.90
4435;DHT22;46552;52.150;8.428;2022-07-23T01:39:34;16.40;99.90
4435;DHT22;46552;52.150;8.428;2022-07-23T01:42:03;16.40;99.90
4435;DHT22;46552;52.150;8.428;2022-07-23T01:44:30;16.40;99.90
4435;DHT22;46552;52.150;8.428;2022-07-23T01:46:57;16.50;99.90
4435;DHT22;46552;52.150;8.428;2022-07-23T01:49:24;16.50;99.90
4435;DHT22;46552;52.150;8.428;2022-07-23T01:51:51;16.50;99.90
4435;DHT22;46552;52.150;8.428;2022-07-23T01:54:35;16.50;99.90
4435;DHT22;46552;52.150;8.428;2022-07-23T01:57:04;16.50;99.90
4435;DHT22;46552;52.150;8.428;2022-07-23T01:59:31;16.50;99.90
4435;DHT22;46552;52.150;8.428;2022-07-23T02:01:58;16.60;99.90
4435;DHT22;46552;52.150;8.428;2022-07-23T02:04:25;16.50;99.90
4435;DHT22;46552;52.150;8.428;2022-07-23T02:06:54;16.50;99.90
4435;DHT22;46552;52.150;8.428;2022-07-23T02:09:21;16.50;99.90
4435;DHT22;46552;52.150;8.428;2022-07-23T02:11:49;16.50;99.90
4435;DHT22;46552;52.150;8.428;2022-07-23T02:14:17;16.50;99.90
4435;DHT22;46552;52.150;8.428;2022-07-23T02:16:45;16.50;99.90
4435;DHT22;46552;52.150;8.428;2022-07-23T02:19:12;16.50;99.90
4435;DHT22;46552;52.150;8.428;2022-07-23T02:21:39;16.50;99.90
4435;DHT22;46552;52.150;8.428;2022-07-23T02:24:07;16.50;99.90
4435;DHT22;46552;52.150;8.428;2022-07-23T02:26:34;16.50;99.90
4435;DHT22;46552;52.150;8.428;2022-07-23T02:29:01;16.50;99.90
4435;DHT22;46552;52.150;8.428;2022-07-23T02:31:31;16.40;99.90
4435;DHT22;46552;52.150;8.428;2022-07-23T02:33:59;16.40;99.90
4435;DHT22;46552;52.150;8.428;2022-07-23T02:36:27;16.30;99.90
4435;DHT22;46552;52.150;8.428;2022-07-23T02:38:54;16.30;99.90
4435;DHT22;46552;52.150;8.428;2022-07-23T02:41:22;16.20;99.90
4435;DHT22;46552;52.150;8.428;2022-07-23T02:43:49;16.20;99.90
4435;DHT22;46552;52.150;8.428;2022-07-23T02:46:16;16.20;99.90
4435;DHT22;46552;52.150;8.428;2022-07-23T02:48:45;16.20;99.90
4435;DHT22;46552;52.150;8.428;2022-07-23T02:51:12;16.20;99.90
4435;DHT22;46552;52.150;8.428;2022-07-23T02:53:40;16.20;99.90
4435;DHT22;46552;52.150;8.428;2022-07-23T02:56:07;16.20;99.90
4435;DHT22;46552;52.150;8.428;2022-07-23T02:58:35;16.20;99.90
4435;DHT22;46552;52.150;8.428;2022-07-23T03:01:03;16.20;99.90
4435;DHT22;46552;52.150;8.428;2022-07-23T03:03:30;16.20;99.90
4435;DHT22;46552;52.150;8.428;2022-07-23T03:05:59;16.20;99.90
4435;DHT22;46552;52.150;8.428;2022-07-23T03:08:27;16.20;99.90
4435;DHT22;46552;52.150;8.428;2022-07-23T03:10:54;16.20;99.90
4435;DHT22;46552;52.150;8.428;2022-07-23T03:13:21;16.10;99.90
4435;DHT22;46552;52.150;8.428;2022-07-23T03:15:48;16.10;99.90
4435;DHT22;46552;52.150;8.428;2022-07-23T03:18:15;16.10;99.90
4435;DHT22;46552;52.150;8.428;2022-07-23T03:20:43;16.10;99.90
4435;DHT22;46552;52.150;8.428;2022-07-23T03:23:12;16.10;99.90
4435;DHT22;46552;52.150;8.428;2022-07-23T03:25:38;16.10;99.90
4435;DHT22;46552;52.150;8.428;2022-07-23T03:28:05;16.00;99.90
4435;DHT22;46552;52.150;8.428;2022-07-23T03:30:33;16.00;99.90
4435;DHT22;46552;52.150;8.428;2022-07-23T03:33:00;16.00;99.90
4435;DHT22;46552;52.150;8.428;2022-07-23T03:35:27;16.00;99.90
4435;DHT22;46552;52.150;8.428;2022-07-23T03:37:54;16.00;99.90
4435;DHT22;46552;52.150;8.428;2022-07-23T03:40:24;16.00;99.90
4435;DHT22;46552;52.150;8.428;2022-07-23T03:42:51;16.00;99.90
4435;DHT22;46552;52.150;8.428;2022-07-23T03:45:18;16.00;99.90
4435;DHT22;46552;52.150;8.428;2022-07-23T03:47:45;16.00;99.90
4435;DHT22;46552;52.150;8.428;2022-07-23T03:50:12;16.00;99.90
4435;DHT22;46552;52.150;8.428;2022-07-23T03:52:40;16.00;99.90
4435;DHT22;46552;52.150;8.428;2022-07-23T03:55:09;16.10;99.90
4435;DHT22;46552;52.150;8.428;2022-07-23T03:57:38;16.10;99.90
4435;DHT22;46552;52.150;8.428;2022-07-23T04:00:06;16.10;99.90
4435;DHT22;46552;52.150;8.428;2022-07-23T04:02:34;16.10;99.90
4435;DHT22;46552;52.150;8.428;2022-07-23T04:05:02;16.00;99.90
4435;DHT22;46552;52.150;8.428;2022-07-23T04:07:29;16.00;99.90
4435;DHT22;46552;52.150;8.428;2022-07-23T04:09:57;16.00;99.90
4435;DHT22;46552;52.150;8.428;2022-07-23T04:12:26;15.90;99.90
4435;DHT22;46552;52.150;8.428;2022-07-23T04:14:55;15.90;99.90
4435;DHT22;46552;52.150;8.428;2022-07-23T04:17:22;15.90;99.90
4435;DHT22;46552;52.150;8.428;2022-07-23T04:19:51;15.90;99.90
4435;DHT22;46552;52.150;8.428;2022-07-23T04:22:19;16.00;99.90
4435;DHT22;46552;52.150;8.428;2022-07-23T04:24:48;16.00;99.90
4435;DHT22;46552;52.150;8.428;2022-07-23T04:27:16;15.90;99.90
4435;DHT22;46552;52.150;8.428;2022-07-23T04:29:43;15.90;99.90
4435;DHT22;46552;52.150;8.428;2022-07-23T04:32:12;15.90;99.90
4435;DHT22;46552;52.150;8.428;2022-07-23T04:34:39;15.90;99.90
4435;DHT22;46552;52.150;8.428;2022-07-23T04:37:06;16.00;99.90
4435;DHT22;46552;52.150;8.428;2022-07-23T04:39:33;16.00;99.90
4435;DHT22;46552;52.150;8.428;2022-07-23T04:42:00;16.00;99.90
4435;DHT22;46552;52.150;8.428;2022-07-23T04:44:28;16.00;99.90
4435;DHT22;46552;52.150;8.428;2022-07-23T04:46:55;16.10;99.90
4435;DHT22;46552;52.150;8.428;2022-07-23T04:49:24;16.10;99.90
4435;DHT22;46552;52.150;8.428;2022-07-23T04:51:51;16.10;99.90
4435;DHT22;46552;52.150;8.428;2022-07-23T04:54:18;16.10;99.90
4435;DHT22;46552;52.150;8.428;2022-07-23T04:56:45;16.20;99.90
4435;DHT22;46552;52.150;8.428;2022-07-23T04:59:12;16.20;99.90
4435;DHT22;46552;52.150;8.428;2022-07-23T05:01:39;16.20;99.90
4435;DHT22;46552;52.150;8.428;2022-07-23T05:04:07;16.20;99.90
4435;DHT22;46552;52.150;8.428;2022-07-23T05:06:35;16.20;99.90
4435;DHT22;46552;52.150;8.428;2022-07-23T05:09:03;16.30;99.90
4435;DHT22;46552;52.150;8.428;2022-07-23T05:11:31;16.30;99.90
4435;DHT22;46552;52.150;8.428;2022-07-23T05:13:59;16.30;99.90
4435;DHT22;46552;52.150;8.428;2022-07-23T05:16:26;16.30;99.90
4435;DHT22;46552;52.150;8.428;2022-07-23T05:18:53;16.30;99.90
4435;DHT22;46552;52.150;8.428;2022-07-23T05:21:20;16.30;99.90
4435;DHT22;46552;52.150;8.428;2022-07-23T05:23:49;16.40;99.90
4435;DHT22;46552;52.150;8.428;2022-07-23T05:26:16;16.40;99.90
4435;DHT22;46552;52.150;8.428;2022-07-23T05:28:43;16.40;99.90
4435;DHT22;46552;52.150;8.428;2022-07-23T05:31:10;16.50;99.90
4435;DHT22;46552;52.150;8.428;2022-07-23T05:33:37;16.50;99.90
4435;DHT22;46552;52.150;8.428;2022-07-23T05:36:05;16.60;99.90
4435;DHT22;46552;52.150;8.428;2022-07-23T05:38:32;16.60;99.90
4435;DHT22;46552;52.150;8.428;2022-07-23T05:41:01;16.70;99.90
4435;DHT22;46552;52.150;8.428;2022-07-23T05:43:29;16.70;99.90
4435;DHT22;46552;52.150;8.428;2022-07-23T05:45:56;16.80;99.90
4435;DHT22;46552;52.150;8.428;2022-07-23T05:48:23;16.80;99.90
4435;DHT22;46552;52.150;8.428;2022-07-23T05:50:50;16.90;99.90
4435;DHT22;46552;52.150;8.428;2022-07-23T05:53:17;17.00;99.90
4435;DHT22;46552;52.150;8.428;2022-07-23T05:55:45;17.10;99.90
4435;DHT22;46552;52.150;8.428;2022-07-23T05:58:16;17.10;99.90
4435;DHT22;46552;52.150;8.428;2022-07-23T06:00:43;17.20;99.90
4435;DHT22;46552;52.150;8.428;2022-07-23T06:03:10;17.30;99.90
4435;DHT22;46552;52.150;8.428;2022-07-23T06:05:38;17.30;99.90
4435;DHT22;46552;52.150;8.428;2022-07-23T06:08:05;17.30;99.90
4435;DHT22;46552;52.150;8.428;2022-07-23T06:10:41;17.40;99.90
4435;DHT22;46552;52.150;8.428;2022-07-23T06:13:09;17.50;99.90
4435;DHT22;46552;52.150;8.428;2022-07-23T06:15:38;17.50;99.90
4435;DHT22;46552;52.150;8.428;2022-07-23T06:18:05;17.60;99.90
4435;DHT22;46552;52.150;8.428;2022-07-23T06:20:33;17.60;99.90
4435;DHT22;46552;52.150;8.428;2022-07-23T06:23:00;17.60;99.90
4435;DHT22;46552;52.150;8.428;2022-07-23T06:25:28;17.70;99.90
4435;DHT22;46552;52.150;8.428;2022-07-23T06:27:56;17.70;99.90
4435;DHT22;46552;52.150;8.428;2022-07-23T06:30:23;17.70;99.90
4435;DHT22;46552;52.150;8.428;2022-07-23T06:32:52;17.80;99.90
4435;DHT22;46552;52.150;8.428;2022-07-23T06:35:19;17.80;99.90
4435;DHT22;46552;52.150;8.428;2022-07-23T06:37:46;17.90;99.90
4435;DHT22;46552;52.150;8.428;2022-07-23T06:40:15;17.90;99.90
4435;DHT22;46552;52.150;8.428;2022-07-23T06:42:42;18.00;99.90
4435;DHT22;46552;52.150;8.428;2022-07-23T06:45:09;18.10;99.90
4435;DHT22;46552;52.150;8.428;2022-07-23T06:47:36;18.10;99.90
4435;DHT22;46552;52.150;8.428;2022-07-23T06:50:06;18.20;99.90
4435;DHT22;46552;52.150;8.428;2022-07-23T06:52:33;18.20;99.90
4435;DHT22;46552;52.150;8.428;2022-07-23T06:55:00;18.30;99.90
4435;DHT22;46552;52.150;8.428;2022-07-23T06:57:28;18.40;99.90
4435;DHT22;46552;52.150;8.428;2022-07-23T06:59:55;18.50;99.90
4435;DHT22;46552;52.150;8.428;2022-07-23T07:02:23;18.50;99.90
4435;DHT22;46552;52.150;8.428;2022-07-23T07:04:50;18.50;99.90
4435;DHT22;46552;52.150;8.428;2022-07-23T07:07:20;18.60;99.90
4435;DHT22;46552;52.150;8.428;2022-07-23T07:09:47;18.70;99.90
4435;DHT22;46552;52.150;8.428;2022-07-23T07:12:14;18.80;99.90
4435;DHT22;46552;52.150;8.428;2022-07-23T07:14:42;18.90;99.90
4435;DHT22;46552;52.150;8.428;2022-07-23T07:17:09;19.00;99.90
4435;DHT22;46552;52.150;8.428;2022-07-23T07:19:37;19.10;99.90
4435;DHT22;46552;52.150;8.428;2022-07-23T07:22:04;19.20;99.90
4435;DHT22;46552;52.150;8.428;2022-07-23T07:24:34;19.20;99.90
4435;DHT22;46552;52.150;8.428;2022-07-23T07:27:01;19.30;99.90
4435;DHT22;46552;52.150;8.428;2022-07-23T07:29:28;19.30;99.90
4435;DHT22;46552;52.150;8.428;2022-07-23T07:31:56;19.30;99.90
4435;DHT22;46552;52.150;8.428;2022-07-23T07:34:24;19.40;99.90
4435;DHT22;46552;52.150;8.428;2022-07-23T07:36:52;19.40;99.90
4435;DHT22;46552;52.150;8.428;2022-07-23T07:39:19;19.50;99.90
4435;DHT22;46552;52.150;8.428;2022-07-23T07:41:49;19.50;99.90
4435;DHT22;46552;52.150;8.428;2022-07-23T07:44:16;19.70;99.90
4435;DHT22;46552;52.150;8.428;2022-07-23T07:46:43;19.70;99.90
4435;DHT22;46552;52.150;8.428;2022-07-23T07:49:11;19.70;99.90
4435;DHT22;46552;52.150;8.428;2022-07-23T07:51:38;19.70;99.90
4435;DHT22;46552;52.150;8.428;2022-07-23T07:54:05;19.60;99.90
4435;DHT22;46552;52.150;8.428;2022-07-23T07:56:32;19.60;99.90
4435;DHT22;46552;52.150;8.428;2022-07-23T07:59:02;19.70;99.90
4435;DHT22;46552;52.150;8.428;2022-07-23T08:01:29;19.80;99.90
4435;DHT22;46552;52.150;8.428;2022-07-23T08:03:56;19.90;99.90
4435;DHT22;46552;52.150;8.428;2022-07-23T08:06:23;20.00;99.90
4435;DHT22;46552;52.150;8.428;2022-07-23T08:08:50;20.20;99.90
4435;DHT22;46552;52.150;8.428;2022-07-23T08:11:17;20.30;99.90
4435;DHT22;46552;52.150;8.428;2022-07-23T08:13:45;20.50;99.90
4435;DHT22;46552;52.150;8.428;2022-07-23T08:16:13;20.50;99.90
4435;DHT22;46552;52.150;8.428;2022-07-23T08:18:40;20.60;99.90
4435;DHT22;46552;52.150;8.428;2022-07-23T08:21:08;20.70;99.90
4435;DHT22;46552;52.150;8.428;2022-07-23T08:23:35;20.70;99.90
4435;DHT22;46552;52.150;8.428;2022-07-23T08:26:03;20.90;99.90
4435;DHT22;46552;52.150;8.428;2022-07-23T08:28:31;21.00;99.90
4435;DHT22;46552;52.150;8.428;2022-07-23T08:30:59;21.10;99.90
4435;DHT22;46552;52.150;8.428;2022-07-23T08:33:28;21.10;99.90
4435;DHT22;46552;52.150;8.428;2022-07-23T08:35:55;21.10;99.90
4435;DHT22;46552;52.150;8.428;2022-07-23T08:38:23;21.10;99.90
4435;DHT22;46552;52.150;8.428;2022-07-23T08:40:52;21.10;99.90
4435;DHT22;46552;52.150;8.428;2022-07-23T08:43:22;21.20;99.90
4435;DHT22;46552;52.150;8.428;2022-07-23T08:45:51;21.20;99.90
4435;DHT22;46552;52.150;8.428;2022-07-23T08:48:20;21.30;99.90
4435;DHT22;46552;52.150;8.428;2022-07-23T08:50:54;21.40;99.90
4435;DHT22;46552;52.150;8.428;2022-07-23T08:53:22;21.40;99.90
4435;DHT22;46552;52.150;8.428;2022-07-23T08:55:54;21.50;99.90
4435;DHT22;46552;52.150;8.428;2022-07-23T08:58:22;21.60;99.90
4435;DHT22;46552;52.150;8.428;2022-07-23T09:00:50;21.70;99.90
4435;DHT22;46552;52.150;8.428;2022-07-23T09:03:20;21.80;99.90
4435;DHT22;46552;52.150;8.428;2022-07-23T09:05:50;22.00;99.90
4435;DHT22;46552;52.150;8.428;2022-07-23T09:08:22;22.00;99.90
4435;DHT22;46552;52.150;8.428;2022-07-23T09:10:52;21.90;99.90
4435;DHT22;46552;52.150;8.428;2022-07-23T09:13:30;21.80;99.90
4435;DHT22;46552;52.150;8.428;2022-07-23T09:15:59;21.80;99.90
4435;DHT22;46552;52.150;8.428;2022-07-23T09:18:38;21.80;99.90
4435;DHT22;46552;52.150;8.428;2022-07-23T09:21:12;22.10;99.90
4435;DHT22;46552;52.150;8.428;2022-07-23T09:23:41;22.40;99.90
4435;DHT22;46552;52.150;8.428;2022-07-23T09:26:25;22.50;99.90
4435;DHT22;46552;52.150;8.428;2022-07-23T09:29:07;22.40;99.90
4435;DHT22;46552;52.150;8.428;2022-07-23T09:31:45;22.40;99.90
4435;DHT22;46552;52.150;8.428;2022-07-23T09:34:15;22.30;99.80
4435;DHT22;46552;52.150;8.428;2022-07-23T09:36:44;22.40;99.50
4435;DHT22;46552;52.150;8.428;2022-07-23T09:39:14;22.70;99.70
4435;DHT22;46552;52.150;8.428;2022-07-23T09:41:44;22.90;99.40
4435;DHT22;46552;52.150;8.428;2022-07-23T09:44:14;23.30;99.00
4435;DHT22;46552;52.150;8.428;2022-07-23T09:46:44;23.40;98.30
4435;DHT22;46552;52.150;8.428;2022-07-23T09:49:17;23.60;98.10
4435;DHT22;46552;52.150;8.428;2022-07-23T09:51:49;23.80;97.80
4435;DHT22;46552;52.150;8.428;2022-07-23T09:54:32;23.90;97.50
4435;DHT22;46552;52.150;8.428;2022-07-23T09:57:03;24.10;97.20
4435;DHT22;46552;52.150;8.428;2022-07-23T09:59:33;24.30;97.00
4435;DHT22;46552;52.150;8.428;2022-07-23T10:02:02;24.50;96.60
4435;DHT22;46552;52.150;8.428;2022-07-23T10:04:31;24.60;96.40
4435;DHT22;46552;52.150;8.428;2022-07-23T10:07:02;24.80;96.30
4435;DHT22;46552;52.150;8.428;2022-07-23T10:09:31;24.90;95.80
4435;DHT22;46552;52.150;8.428;2022-07-23T10:12:00;25.00;95.50
4435;DHT22;46552;52.150;8.428;2022-07-23T10:14:35;24.80;95.70
4435;DHT22;46552;52.150;8.428;2022-07-23T10:17:03;24.60;95.60
4435;DHT22;46552;52.150;8.428;2022-07-23T10:19:31;24.50;95.50
4435;DHT22;46552;52.150;8.428;2022-07-23T10:22:02;24.70;95.50
4435;DHT22;46552;52.150;8.428;2022-07-23T10:24:46;24.70;95.40
4435;DHT22;46552;52.150;8.428;2022-07-23T10:27:57;25.00;94.30
4435;DHT22;46552;52.150;8.428;2022-07-23T10:30:31;25.20;93.50
4435;DHT22;46552;52.150;8.428;2022-07-23T10:33:12;25.50;93.70
4435;DHT22;46552;52.150;8.428;2022-07-23T10:35:47;25.60;93.60
4435;DHT22;46552;52.150;8.428;2022-07-23T10:38:21;25.70;93.50
4435;DHT22;46552;52.150;8.428;2022-07-23T10:40:56;25.80;92.10
4435;DHT22;46552;52.150;8.428;2022-07-23T10:43:24;25.90;92.70
4435;DHT22;46552;52.150;8.428;2022-07-23T10:45:52;26.10;92.20
4435;DHT22;46552;52.150;8.428;2022-07-23T10:48:20;26.30;92.20
4435;DHT22;46552;52.150;8.428;2022-07-23T10:51:07;26.30;91.90
4435;DHT22;46552;52.150;8.428;2022-07-23T10:53:56;26.30;91.80
4435;DHT22;46552;52.150;8.428;2022-07-23T10:59:31;26.20;92.00
4435;DHT22;46552;52.150;8.428;2022-07-23T11:02:21;26.40;91.80
4435;DHT22;46552;52.150;8.428;2022-07-23T11:04:51;26.60;91.40
4435;DHT22;46552;52.150;8.428;2022-07-23T11:07:19;26.80;90.80
4435;DHT22;46552;52.150;8.428;2022-07-23T11:09:47;27.10;90.70
4435;DHT22;46552;52.150;8.428;2022-07-23T11:12:36;27.20;90.00
4435;DHT22;46552;52.150;8.428;2022-07-23T11:15:07;27.30;86.90
4435;DHT22;46552;52.150;8.428;2022-07-23T11:17:37;27.20;88.80
4435;DHT22;46552;52.150;8.428;2022-07-23T11:20:17;27.40;88.50
4435;DHT22;46552;52.150;8.428;2022-07-23T11:22:50;27.60;86.40
4435;DHT22;46552;52.150;8.428;2022-07-23T11:25:33;27.40;86.90
4435;DHT22;46552;52.150;8.428;2022-07-23T11:28:15;27.10;86.10
4435;DHT22;46552;52.150;8.428;2022-07-23T11:30:44;26.80;89.30
4435;DHT22;46552;52.150;8.428;2022-07-23T11:33:20;26.90;88.80
4435;DHT22;46552;52.150;8.428;2022-07-23T11:35:50;26.90;86.20
4435;DHT22;46552;52.150;8.428;2022-07-23T11:38:26;27.00;88.00
4435;DHT22;46552;52.150;8.428;2022-07-23T11:40:56;27.20;87.00
4435;DHT22;46552;52.150;8.428;2022-07-23T11:43:24;27.40;87.00
4435;DHT22;46552;52.150;8.428;2022-07-23T11:45:53;27.60;85.30
4435;DHT22;46552;52.150;8.428;2022-07-23T11:48:22;27.70;84.70
4435;DHT22;46552;52.150;8.428;2022-07-23T11:50:49;27.90;85.00
4435;DHT22;46552;52.150;8.428;2022-07-23T11:53:22;28.00;83.80
4435;DHT22;46552;52.150;8.428;2022-07-23T11:55:50;27.80;82.80
4435;DHT22;46552;52.150;8.428;2022-07-23T11:58:19;27.80;82.50
4435;DHT22;46552;52.150;8.428;2022-07-23T12:00:47;27.80;82.00
4435;DHT22;46552;52.150;8.428;2022-07-23T12:03:16;27.90;82.60
4435;DHT22;46552;52.150;8.428;2022-07-23T12:05:43;28.10;82.20
4435;DHT22;46552;52.150;8.428;2022-07-23T12:08:11;28.30;81.90
4435;DHT22;46552;52.150;8.428;2022-07-23T12:10:40;28.30;81.20
4435;DHT22;46552;52.150;8.428;2022-07-23T12:13:09;28.20;80.30
4435;DHT22;46552;52.150;8.428;2022-07-23T12:15:40;28.10;80.00
4435;DHT22;46552;52.150;8.428;2022-07-23T12:18:09;28.00;79.10
4435;DHT22;46552;52.150;8.428;2022-07-23T12:20:37;27.70;79.30
4435;DHT22;46552;52.150;8.428;2022-07-23T12:23:06;27.50;80.00
4435;DHT22;46552;52.150;8.428;2022-07-23T12:25:35;27.50;79.90
4435;DHT22;46552;52.150;8.428;2022-07-23T12:28:06;27.60;79.40
4435;DHT22;46552;52.150;8.428;2022-07-23T12:30:39;27.70;78.80
4435;DHT22;46552;52.150;8.428;2022-07-23T12:33:07;27.80;78.70
4435;DHT22;46552;52.150;8.428;2022-07-23T12:35:36;28.10;78.20
4435;DHT22;46552;52.150;8.428;2022-07-23T12:38:06;28.20;77.90
4435;DHT22;46552;52.150;8.428;2022-07-23T12:40:35;28.40;77.70
4435;DHT22;46552;52.150;8.428;2022-07-23T12:43:05;28.40;77.10
4435;DHT22;46552;52.150;8.428;2022-07-23T12:45:47;28.40;76.60
4435;DHT22;46552;52.150;8.428;2022-07-23T12:48:20;28.40;75.90
4435;DHT22;46552;52.150;8.428;2022-07-23T12:50:53;28.40;75.60
4435;DHT22;46552;52.150;8.428;2022-07-23T12:53:23;28.50;75.30
4435;DHT22;46552;52.150;8.428;2022-07-23T12:55:57;28.30;75.10
4435;DHT22;46552;52.150;8.428;2022-07-23T12:58:25;28.30;74.90
4435;DHT22;46552;52.150;8.428;2022-07-23T13:00:59;28.30;74.90
4435;DHT22;46552;52.150;8.428;2022-07-23T13:03:30;28.20;75.00
4435;DHT22;46552;52.150;8.428;2022-07-23T13:05:58;28.20;74.70
4435;DHT22;46552;52.150;8.428;2022-07-23T13:08:27;28.30;74.60
4435;DHT22;46552;52.150;8.428;2022-07-23T13:10:55;28.30;74.50
4435;DHT22;46552;52.150;8.428;2022-07-23T13:13:25;28.30;73.80
4435;DHT22;46552;52.150;8.428;2022-07-23T13:15:56;28.30;74.10
4435;DHT22;46552;52.150;8.428;2022-07-23T13:18:24;28.30;73.80
4435;DHT22;46552;52.150;8.428;2022-07-23T13:20:51;28.40;73.60
4435;DHT22;46552;52.150;8.428;2022-07-23T13:23:19;28.50;73.40
4435;DHT22;46552;52.150;8.428;2022-07-23T13:25:46;28.50;73.20
4435;DHT22;46552;52.150;8.428;2022-07-23T13:28:14;28.50;73.00
4435;DHT22;46552;52.150;8.428;2022-07-23T13:30:42;28.60;72.70
4435;DHT22;46552;52.150;8.428;2022-07-23T13:33:13;28.40;72.30
4435;DHT22;46552;52.150;8.428;2022-07-23T13:35:40;28.40;72.20
4435;DHT22;46552;52.150;8.428;2022-07-23T13:38:08;28.40;72.00
4435;DHT22;46552;52.150;8.428;2022-07-23T13:40:35;28.40;72.10
4435;DHT22;46552;52.150;8.428;2022-07-23T13:43:05;28.40;72.90
4435;DHT22;46552;52.150;8.428;2022-07-23T13:45:32;28.40;72.10
4435;DHT22;46552;52.150;8.428;2022-07-23T13:48:00;28.40;71.90
4435;DHT22;46552;52.150;8.428;2022-07-23T13:50:30;28.40;71.90
4435;DHT22;46552;52.150;8.428;2022-07-23T13:53:00;28.30;71.90
4435;DHT22;46552;52.150;8.428;2022-07-23T13:55:28;28.30;72.20
4435;DHT22;46552;52.150;8.428;2022-07-23T13:57:56;28.20;72.00
4435;DHT22;46552;52.150;8.428;2022-07-23T14:00:23;28.00;71.80
4435;DHT22;46552;52.150;8.428;2022-07-23T14:02:51;28.00;71.90
4435;DHT22;46552;52.150;8.428;2022-07-23T14:05:18;28.00;72.00
4435;DHT22;46552;52.150;8.428;2022-07-23T14:07:47;28.10;71.80
4435;DHT22;46552;52.150;8.428;2022-07-23T14:10:17;28.10;71.20
4435;DHT22;46552;52.150;8.428;2022-07-23T14:12:44;28.10;71.10
4435;DHT22;46552;52.150;8.428;2022-07-23T14:15:12;28.10;71.50
4435;DHT22;46552;52.150;8.428;2022-07-23T14:17:41;28.10;70.70
4435;DHT22;46552;52.150;8.428;2022-07-23T14:20:09;28.10;70.20
4435;DHT22;46552;52.150;8.428;2022-07-23T14:22:37;28.00;70.60
4435;DHT22;46552;52.150;8.428;2022-07-23T14:25:09;28.00;70.80
4435;DHT22;46552;52.150;8.428;2022-07-23T14:27:36;28.00;70.90
4435;DHT22;46552;52.150;8.428;2022-07-23T14:30:05;27.90;70.90
4435;DHT22;46552;52.150;8.428;2022-07-23T14:32:33;27.90;70.70
4435;DHT22;46552;52.150;8.428;2022-07-23T14:35:00;27.90;70.80
4435;DHT22;46552;52.150;8.428;2022-07-23T14:37:27;27.90;70.60
4435;DHT22;46552;52.150;8.428;2022-07-23T14:39:54;27.90;70.50
4435;DHT22;46552;52.150;8.428;2022-07-23T14:42:24;27.90;70.50
4435;DHT22;46552;52.150;8.428;2022-07-23T14:44:52;27.80;70.40
4435;DHT22;46552;52.150;8.428;2022-07-23T14:47:19;27.70;70.30
4435;DHT22;46552;52.150;8.428;2022-07-23T14:49:48;27.60;70.70
4435;DHT22;46552;52.150;8.428;2022-07-23T14:52:15;27.60;70.80
4435;DHT22;46552;52.150;8.428;2022-07-23T14:54:44;27.70;70.90
4435;DHT22;46552;52.150;8.428;2022-07-23T14:57:11;27.70;70.70
4435;DHT22;46552;52.150;8.428;2022-07-23T14:59:39;27.80;70.60
4435;DHT22;46552;52.150;8.428;2022-07-23T15:02:07;27.80;70.50
4435;DHT22;46552;52.150;8.428;2022-07-23T15:04:36;27.80;70.50
4435;DHT22;46552;52.150;8.428;2022-07-23T15:07:05;27.80;70.60
4435;DHT22;46552;52.150;8.428;2022-07-23T15:09:32;27.80;70.30
4435;DHT22;46552;52.150;8.428;2022-07-23T15:12:00;27.80;70.40
4435;DHT22;46552;52.150;8.428;2022-07-23T15:14:27;27.70;70.50
4435;DHT22;46552;52.150;8.428;2022-07-23T15:16:58;27.70;70.80
4435;DHT22;46552;52.150;8.428;2022-07-23T15:19:25;27.60;70.70
4435;DHT22;46552;52.150;8.428;2022-07-23T15:21:53;27.60;70.70
4435;DHT22;46552;52.150;8.428;2022-07-23T15:24:20;27.60;70.70
4435;DHT22;46552;52.150;8.428;2022-07-23T15:26:47;27.60;70.50
4435;DHT22;46552;52.150;8.428;2022-07-23T15:29:14;27.60;70.70
4435;DHT22;46552;52.150;8.428;2022-07-23T15:31:41;27.50;70.60
4435;DHT22;46552;52.150;8.428;2022-07-23T15:34:10;27.30;70.70
4435;DHT22;46552;52.150;8.428;2022-07-23T15:36:37;27.30;69.80
4435;DHT22;46552;52.150;8.428;2022-07-23T15:39:04;27.30;70.80
4435;DHT22;46552;52.150;8.428;2022-07-23T15:41:32;27.30;70.80
4435;DHT22;46552;52.150;8.428;2022-07-23T15:44:00;27.30;71.00
4435;DHT22;46552;52.150;8.428;2022-07-23T15:46:28;27.20;70.90
4435;DHT22;46552;52.150;8.428;2022-07-23T15:48:57;27.20;71.10
4435;DHT22;46552;52.150;8.428;2022-07-23T15:51:25;27.10;71.20
4435;DHT22;46552;52.150;8.428;2022-07-23T15:53:52;27.10;71.60
4435;DHT22;46552;52.150;8.428;2022-07-23T15:56:20;27.10;71.60
4435;DHT22;46552;52.150;8.428;2022-07-23T15:58:47;27.10;71.60